createdAt,value
2019-03-04T00:07:15.964Z,951.9
2019-03-04T00:17:19.491Z,951.7
2019-03-04T00:27:53.309Z,951.8
2019-03-04T00:37:56.831Z,951.7
2019-03-04T00:48:00.382Z,951.7
2019-03-04T00:58:03.908Z,951.4
2019-03-04T01:08:07.418Z,951.3
2019-03-04T01:18:10.939Z,951.1
2019-03-04T01:28:14.397Z,950.9
2019-03-04T01:38:17.918Z,950.5
2019-03-04T01:48:21.431Z,950.5
2019-03-04T01:58:24.928Z,950.4
2019-03-04T02:08:28.452Z,950
2019-03-04T02:18:31.958Z,949.6
2019-03-04T02:28:35.428Z,949.4
2019-03-04T02:38:38.969Z,949.5
2019-03-04T02:48:42.519Z,949.3
2019-03-04T02:58:46.063Z,949.3
2019-03-04T03:08:49.578Z,948.9
2019-03-04T03:18:53.110Z,948.7
2019-03-04T03:28:56.593Z,948.8
2019-03-04T03:39:00.109Z,948.5
2019-03-04T03:49:03.647Z,948.5
2019-03-04T03:59:07.186Z,948.2
2019-03-04T04:09:10.678Z,947.9
2019-03-04T04:19:14.232Z,947.4
2019-03-04T04:29:17.719Z,947.4
2019-03-04T04:39:21.227Z,947.1
2019-03-04T04:49:24.768Z,947
2019-03-04T04:59:28.269Z,946.8
2019-03-04T05:09:31.784Z,946.6
2019-03-04T05:19:35.297Z,946.3
2019-03-04T05:29:38.815Z,946.2
2019-03-04T05:39:42.338Z,946.1
2019-03-04T05:49:45.836Z,945.8
2019-03-04T05:59:49.305Z,945.7
2019-03-04T06:09:52.825Z,945.5
2019-03-04T06:19:56.332Z,945.8
2019-03-04T06:29:59.831Z,948.1
2019-03-04T06:40:03.353Z,949.2
2019-03-04T06:50:06.862Z,947.3
2019-03-04T07:00:10.368Z,946.6
2019-03-04T07:10:13.865Z,946.8
2019-03-04T07:20:17.374Z,946.8
2019-03-04T07:30:20.856Z,946.6
2019-03-04T07:42:40.862Z,946.6
2019-03-04T07:53:19.632Z,946.4
2019-03-04T08:06:59.882Z,946.5
2019-03-04T08:17:03.369Z,946.4
2019-03-04T09:16:07.327Z,947.1
2019-03-04T10:57:54.292Z,955.1
2019-03-04T11:07:57.790Z,948.4
2019-03-04T11:18:15.288Z,955
2019-03-04T11:28:18.794Z,954.4
2019-03-04T11:38:22.282Z,954.2
2019-03-04T11:48:25.789Z,954.4
2019-03-04T11:58:29.274Z,954.2
2019-03-04T12:08:32.787Z,954.2
2019-03-04T12:18:36.289Z,954.1
2019-03-04T12:28:40.795Z,953.7
2019-03-04T12:47:03.328Z,953.9
2019-03-04T12:57:06.805Z,953.5
2019-03-04T13:07:10.310Z,954.1
2019-03-04T13:17:13.810Z,954.2
2019-03-04T13:58:22.356Z,953.6
2019-03-04T14:08:25.827Z,953.3
2019-03-04T14:18:29.331Z,953.1
2019-03-04T14:28:33.907Z,953
2019-03-04T14:38:37.422Z,953.3
2019-03-04T14:48:40.925Z,953.7
2019-03-04T15:06:07.652Z,953.7
2019-03-04T15:16:11.149Z,953.4
2019-03-04T15:26:14.651Z,953.1
2019-03-04T15:36:18.173Z,953.1
2019-03-04T15:46:21.650Z,953.1
2019-03-04T15:56:25.129Z,953.6
2019-03-04T16:06:28.603Z,953.6
2019-03-04T16:16:32.113Z,953.4
2019-03-04T16:26:35.606Z,953.7
2019-03-04T16:36:39.127Z,954
2019-03-04T16:46:42.630Z,954
2019-03-04T16:56:46.204Z,954.2
2019-03-04T17:06:49.699Z,954.2
2019-03-04T17:16:53.194Z,954.4
2019-03-04T17:26:56.793Z,954.6
2019-03-04T17:37:00.324Z,954.7
2019-03-04T17:47:03.856Z,955
2019-03-04T17:57:07.366Z,955.3
2019-03-04T18:07:10.835Z,955.6
2019-03-04T18:17:14.332Z,956
2019-03-04T18:27:17.800Z,956.3
2019-03-04T18:37:21.300Z,956.3
2019-03-04T18:47:24.802Z,956.5
2019-03-04T18:57:28.326Z,956.4
2019-03-04T19:07:31.777Z,956.7
2019-03-04T19:17:35.289Z,957
2019-03-04T19:27:38.785Z,957
2019-03-04T19:37:42.373Z,956.9
2019-03-04T19:47:45.902Z,956.8
2019-03-04T19:57:49.416Z,957.1
2019-03-04T20:07:52.903Z,957.4
2019-03-04T20:17:57.052Z,957.4
2019-03-04T20:28:00.544Z,957.6
2019-03-04T20:38:04.057Z,957.8
2019-03-04T20:48:07.575Z,958.2
2019-03-04T20:58:11.059Z,958.8
2019-03-04T21:08:14.538Z,959.3
2019-03-04T21:18:18.053Z,959.6
2019-03-04T21:28:21.601Z,959.6
2019-03-04T21:38:25.119Z,959.7
2019-03-04T21:48:28.624Z,960.2
2019-03-04T21:58:32.158Z,960.4
2019-03-04T22:08:35.654Z,960.5
2019-03-04T22:18:39.162Z,960.7
2019-03-04T22:28:42.708Z,960.6
2019-03-04T22:38:46.250Z,960.4
2019-03-04T22:48:49.799Z,953.4
2019-03-04T22:58:53.332Z,953.4
2019-03-04T23:08:56.800Z,953.6
2019-03-04T23:19:00.288Z,953.6
2019-03-04T23:29:03.806Z,953.5
2019-03-04T23:39:07.329Z,953.4
2019-03-04T23:49:10.823Z,953.3
2019-03-04T23:59:14.350Z,953.2
